createdAt,value
2024-02-17T00:03:29.539Z,3.60
2024-02-17T00:08:44.178Z,3.50
2024-02-17T00:13:56.321Z,3.10
2024-02-17T00:19:07.520Z,2.90
2024-02-17T00:24:17.265Z,2.70
2024-02-17T00:29:27.089Z,3.00
2024-02-17T00:34:34.559Z,3.00
2024-02-17T00:39:43.336Z,2.90
2024-02-17T00:44:52.147Z,3.20
2024-02-17T00:50:00.317Z,3.30
2024-02-17T00:55:10.384Z,3.10
2024-02-17T01:00:17.371Z,2.60
2024-02-17T01:05:28.545Z,2.50
2024-02-17T01:10:40.455Z,2.80
2024-02-17T01:15:50.480Z,2.80
2024-02-17T01:20:56.414Z,2.20
2024-02-17T01:25:59.721Z,2.40
2024-02-17T01:31:05.866Z,2.40
2024-02-17T01:36:14.234Z,2.60
2024-02-17T01:41:26.372Z,2.70
2024-02-17T01:46:29.663Z,2.60
2024-02-17T01:51:32.728Z,2.80
2024-02-17T01:56:40.488Z,2.70
2024-02-17T02:01:42.882Z,2.00
2024-02-17T02:06:49.968Z,2.20
2024-02-17T02:11:54.279Z,2.10
2024-02-17T02:17:02.786Z,2.10
2024-02-17T02:22:13.866Z,2.40
2024-02-17T02:27:19.638Z,2.40
2024-02-17T02:32:23.998Z,2.50
2024-02-17T02:37:33.084Z,2.50
2024-02-17T02:42:44.176Z,2.30
2024-02-17T02:47:50.298Z,1.40
2024-02-17T02:52:56.827Z,1.40
2024-02-17T02:58:04.533Z,1.40
2024-02-17T03:03:14.168Z,1.70
2024-02-17T03:08:20.999Z,1.80
2024-02-17T03:13:20.849Z,1.90
2024-02-17T03:18:24.817Z,1.80
2024-02-17T03:23:26.590Z,2.00
2024-02-17T03:28:30.260Z,2.20
2024-02-17T03:33:38.669Z,2.10
2024-02-17T03:38:41.042Z,1.60
2024-02-17T03:43:42.170Z,1.80
2024-02-17T03:48:43.336Z,1.90
2024-02-17T03:53:53.321Z,1.90
2024-02-17T03:58:53.718Z,1.40
2024-02-17T04:03:58.299Z,1.70
2024-02-17T04:09:05.693Z,1.90
2024-02-17T04:14:07.220Z,1.40
2024-02-17T04:19:08.709Z,1.00
2024-02-17T04:24:11.864Z,1.00
2024-02-17T04:29:19.770Z,1.00
2024-02-17T04:34:22.002Z,1.10
2024-02-17T04:39:30.025Z,1.30
2024-02-17T04:44:31.686Z,1.10
2024-02-17T04:49:41.001Z,1.00
2024-02-17T04:54:54.802Z,1.10
2024-02-17T04:59:53.501Z,1.30
2024-02-17T05:04:51.346Z,1.60
2024-02-17T05:09:48.999Z,1.60
2024-02-17T05:14:47.364Z,1.50
2024-02-17T05:19:45.289Z,0.80
2024-02-17T05:24:46.646Z,0.90
2024-02-17T05:29:45.675Z,0.70
2024-02-17T05:34:44.192Z,1.10
2024-02-17T05:39:42.710Z,1.40
2024-02-17T05:44:40.843Z,1.40
2024-02-17T05:49:39.965Z,1.00
2024-02-17T05:54:38.416Z,1.00
2024-02-17T05:59:37.075Z,1.00
2024-02-17T06:04:34.838Z,1.30
2024-02-17T06:09:34.721Z,1.00
2024-02-17T06:14:33.376Z,0.90
2024-02-17T06:19:50.033Z,1.00
2024-02-17T06:24:49.401Z,0.60
2024-02-17T06:29:47.539Z,0.80
2024-02-17T06:34:48.230Z,0.90
2024-02-17T06:39:46.276Z,1.00
2024-02-17T06:44:44.683Z,1.30
2024-02-17T06:49:42.544Z,1.30
2024-02-17T06:54:42.601Z,1.10
2024-02-17T06:59:40.729Z,1.20
2024-02-17T07:04:40.512Z,1.50
2024-02-17T07:09:41.001Z,1.80
2024-02-17T07:14:46.884Z,1.70
2024-02-17T07:19:44.267Z,1.90
2024-02-17T07:24:44.175Z,2.00
2024-02-17T07:29:44.668Z,1.90
2024-02-17T07:34:44.692Z,2.40
2024-02-17T07:39:42.264Z,2.90
2024-02-17T07:44:43.401Z,3.40
2024-02-17T07:49:40.863Z,3.70
2024-02-17T07:54:38.311Z,3.90
2024-02-17T07:59:35.914Z,4.10
2024-02-17T08:04:33.737Z,4.30
2024-02-17T08:09:32.481Z,4.20
2024-02-17T08:14:30.850Z,4.20
2024-02-17T08:19:28.496Z,4.10
2024-02-17T08:24:26.037Z,4.20
2024-02-17T08:29:23.831Z,4.20
2024-02-17T08:34:21.441Z,4.20
2024-02-17T08:39:19.700Z,4.30
2024-02-17T08:44:18.699Z,4.30
2024-02-17T08:49:16.049Z,4.50
2024-02-17T08:54:17.735Z,4.80
2024-02-17T08:59:15.317Z,5.10
2024-02-17T09:04:12.999Z,5.40
2024-02-17T09:09:10.640Z,6.00
2024-02-17T09:14:08.356Z,6.30
2024-02-17T09:19:05.746Z,6.60
2024-02-17T09:24:03.066Z,6.80
2024-02-17T09:29:00.576Z,7.10
2024-02-17T09:33:58.208Z,7.20
2024-02-17T09:38:56.008Z,7.60
2024-02-17T09:43:53.657Z,7.70
2024-02-17T09:48:51.198Z,7.90
2024-02-17T09:53:48.595Z,7.90
2024-02-17T09:58:46.142Z,7.70
2024-02-17T10:03:43.444Z,8.00
2024-02-17T10:08:41.124Z,8.10
2024-02-17T10:13:40.058Z,8.20
2024-02-17T10:18:47.010Z,8.30
2024-02-17T10:23:44.543Z,8.50
2024-02-17T10:28:41.973Z,10.90
2024-02-17T10:33:39.762Z,12.90
2024-02-17T10:38:37.739Z,11.80
2024-02-17T10:43:39.600Z,12.20
2024-02-17T10:48:41.225Z,12.80
2024-02-17T10:53:48.711Z,12.20
2024-02-17T10:58:47.613Z,12.00
2024-02-17T11:03:46.556Z,12.30
2024-02-17T11:08:45.310Z,12.50
2024-02-17T11:13:42.703Z,12.60
2024-02-17T11:18:43.139Z,12.90
2024-02-17T11:23:42.757Z,13.30
2024-02-17T11:28:40.221Z,14.40
2024-02-17T11:33:39.282Z,14.40
2024-02-17T11:38:38.299Z,14.50
2024-02-17T11:43:36.983Z,14.70
2024-02-17T11:48:34.969Z,13.70
2024-02-17T11:53:33.720Z,13.30
2024-02-17T11:58:31.626Z,13.00
2024-02-17T12:03:30.072Z,12.60
2024-02-17T12:08:28.896Z,12.30
2024-02-17T12:13:28.138Z,12.00
2024-02-17T12:18:26.534Z,12.10
2024-02-17T12:23:24.092Z,12.30
2024-02-17T12:28:22.888Z,12.80
2024-02-17T12:33:23.135Z,12.80
2024-02-17T12:38:24.938Z,12.40
2024-02-17T12:43:29.486Z,12.70
2024-02-17T12:48:31.890Z,13.00
2024-02-17T12:53:29.341Z,13.50
2024-02-17T12:58:26.821Z,13.60
2024-02-17T13:03:26.084Z,14.50
2024-02-17T13:08:24.071Z,14.60
2024-02-17T13:13:21.669Z,14.50
2024-02-17T13:18:19.386Z,15.00
2024-02-17T13:23:17.580Z,15.00
2024-02-17T13:28:14.823Z,14.20
2024-02-17T13:33:12.234Z,14.00
2024-02-17T13:38:18.094Z,13.80
2024-02-17T13:43:23.273Z,14.00
2024-02-17T13:48:22.157Z,14.00
2024-02-17T13:53:19.877Z,13.50
2024-02-17T13:58:17.173Z,13.70
2024-02-17T14:03:15.065Z,13.80
2024-02-17T14:08:13.079Z,13.80
2024-02-17T14:13:10.985Z,13.90
2024-02-17T14:18:10.452Z,13.80
2024-02-17T14:23:07.964Z,13.60
2024-02-17T14:28:05.948Z,13.50
2024-02-17T14:33:04.648Z,13.10
2024-02-17T14:38:02.103Z,13.00
2024-02-17T14:42:59.606Z,12.70
2024-02-17T14:47:57.510Z,12.50
2024-02-17T14:52:58.104Z,12.60
2024-02-17T14:57:55.754Z,12.80
2024-02-17T15:02:54.014Z,12.80
2024-02-17T15:07:51.383Z,12.70
2024-02-17T15:12:50.272Z,12.70
2024-02-17T15:17:48.221Z,12.90
2024-02-17T15:22:45.764Z,13.20
2024-02-17T15:27:43.354Z,12.80
2024-02-17T15:32:40.651Z,12.90
2024-02-17T15:37:38.227Z,12.70
2024-02-17T15:42:38.292Z,12.50
2024-02-17T15:47:36.613Z,11.90
2024-02-17T15:52:34.148Z,11.70
2024-02-17T15:57:35.460Z,11.60
2024-02-17T16:02:32.686Z,11.40
2024-02-17T16:07:31.684Z,11.40
2024-02-17T16:12:29.073Z,11.30
2024-02-17T16:17:26.465Z,11.20
2024-02-17T16:22:23.833Z,11.00
2024-02-17T16:27:21.183Z,10.70
2024-02-17T16:32:19.393Z,10.40
2024-02-17T16:37:16.849Z,10.50
2024-02-17T16:42:14.228Z,10.40
2024-02-17T16:47:13.479Z,10.20
2024-02-17T16:52:11.206Z,10.00
2024-02-17T16:57:08.908Z,9.90
2024-02-17T17:02:06.634Z,9.80
2024-02-17T17:07:13.803Z,9.70
2024-02-17T17:12:11.932Z,9.70
2024-02-17T17:17:09.613Z,9.60
2024-02-17T17:22:08.414Z,9.40
2024-02-17T17:27:06.230Z,9.10
2024-02-17T17:32:04.367Z,9.20
2024-02-17T17:37:03.182Z,9.00
2024-02-17T17:42:00.705Z,8.80
2024-02-17T17:46:58.072Z,8.70
2024-02-17T17:51:55.775Z,8.50
2024-02-17T17:56:53.488Z,8.60
2024-02-17T18:01:50.789Z,8.50
2024-02-17T18:06:48.226Z,8.10
2024-02-17T18:11:45.636Z,8.20
2024-02-17T18:16:43.231Z,8.00
2024-02-17T18:21:41.262Z,7.70
2024-02-17T18:26:38.816Z,7.20
2024-02-17T18:31:37.820Z,7.00
2024-02-17T18:36:35.256Z,7.10
2024-02-17T18:41:33.109Z,7.20
2024-02-17T18:46:30.400Z,6.90
2024-02-17T18:51:28.208Z,7.10
2024-02-17T18:56:27.724Z,7.10
2024-02-17T19:01:25.445Z,6.70
2024-02-17T19:06:23.158Z,6.40
2024-02-17T19:11:20.948Z,6.00
2024-02-17T19:16:18.982Z,5.90
2024-02-17T19:21:16.960Z,6.00
2024-02-17T19:26:14.929Z,5.90
2024-02-17T19:31:12.656Z,5.70
2024-02-17T19:36:11.125Z,5.70
2024-02-17T19:41:10.903Z,5.90
2024-02-17T19:46:10.959Z,5.30
2024-02-17T19:51:08.369Z,5.20
2024-02-17T19:56:07.399Z,5.30
2024-02-17T20:01:05.670Z,5.50
2024-02-17T20:06:03.364Z,5.20
2024-02-17T20:11:02.209Z,5.20
2024-02-17T20:16:00.404Z,5.30
2024-02-17T20:20:58.243Z,5.20
2024-02-17T20:25:55.911Z,5.20
2024-02-17T20:30:53.505Z,4.90
2024-02-17T20:35:51.427Z,5.10
2024-02-17T20:40:48.800Z,4.90
2024-02-17T20:45:48.234Z,4.70
2024-02-17T20:50:45.645Z,5.20
2024-02-17T20:55:43.056Z,5.50
2024-02-17T21:00:42.010Z,5.60
2024-02-17T21:05:40.255Z,5.20
2024-02-17T21:10:37.669Z,5.10
2024-02-17T21:15:35.181Z,5.10
2024-02-17T21:20:32.685Z,5.40
2024-02-17T21:25:30.052Z,4.80
2024-02-17T21:30:27.455Z,4.90
2024-02-17T21:35:24.790Z,5.10
2024-02-17T21:40:24.145Z,5.20
2024-02-17T21:45:23.058Z,5.30
2024-02-17T21:50:20.433Z,5.20
2024-02-17T21:55:18.037Z,5.30
2024-02-17T22:00:15.644Z,5.00
2024-02-17T22:05:12.993Z,4.90
2024-02-17T22:10:10.785Z,5.00
2024-02-17T22:15:09.183Z,4.80
2024-02-17T22:20:07.775Z,5.10
2024-02-17T22:25:05.609Z,4.90
2024-02-17T22:30:03.692Z,4.80
2024-02-17T22:35:01.127Z,4.90
2024-02-17T22:39:58.692Z,5.00
2024-02-17T22:44:56.213Z,4.80
2024-02-17T22:49:54.054Z,4.50
2024-02-17T22:54:51.733Z,4.60
2024-02-17T22:59:49.237Z,4.00
2024-02-17T23:04:46.627Z,4.40
2024-02-17T23:09:44.062Z,4.20
2024-02-17T23:14:41.789Z,4.60
2024-02-17T23:19:39.504Z,4.70
2024-02-17T23:24:37.227Z,4.60
2024-02-17T23:29:34.552Z,4.10
2024-02-17T23:34:32.182Z,4.40
2024-02-17T23:39:30.582Z,4.40
2024-02-17T23:44:28.357Z,4.50
2024-02-17T23:49:25.884Z,4.00
2024-02-17T23:54:23.334Z,4.20
2024-02-17T23:59:20.826Z,4.40
